Time;durP1;ratioP1;P1;durP2;ratioP2;P2;SDS_P1;SDS_P2;PMS_P1;PMS_P2;Temp;Humidity;BMP_temperature;BMP_pressure;BME280_temperature;BME280_humidity;BME280_pressure;Samples;Min_cycle;Max_cycle;Signal;HPM_P1;HPM_P2
2023/03/17 00:00:48;;;;;;;8.18;5.55;;;;;;;-145.63;100.00;61273.97;5013434;28;20048;-64
2023/03/17 00:03:28;;;;;;;8.80;5.43;;;;;;;-145.63;100.00;61273.97;5022837;28;20238;-66
2023/03/17 00:05:56;;;;;;;8.52;5.03;;;;;;;-145.63;100.00;61273.97;5018400;28;20391;-66
2023/03/17 00:08:26;;;;;;;9.93;5.65;;;;;;;-145.63;100.00;61273.97;5025357;28;20034;-66
2023/03/17 00:10:52;;;;;;;9.60;5.07;;;;;;;-145.63;100.00;61273.97;5028986;28;20067;-66
2023/03/17 00:13:18;;;;;;;7.63;4.63;;;;;;;-145.63;100.00;61273.97;5021381;28;20072;-65
2023/03/17 00:15:48;;;;;;;7.28;4.80;;;;;;;-145.63;100.00;61273.97;5028075;28;20049;-66
2023/03/17 00:18:16;;;;;;;9.82;4.68;;;;;;;-145.63;100.00;61273.97;5028720;28;20053;-65
2023/03/17 00:20:43;;;;;;;6.20;4.68;;;;;;;-145.63;100.00;61273.97;5028737;28;20026;-66
2023/03/17 00:23:15;;;;;;;8.35;4.50;;;;;;;-145.63;100.00;61273.97;5028831;28;20022;-66
2023/03/17 00:25:42;;;;;;;6.10;4.20;;;;;;;-145.63;100.00;61273.97;5020293;28;20101;-65
2023/03/17 00:28:19;;;;;;;6.78;4.43;;;;;;;-145.63;100.00;61273.97;5028602;28;20025;-66
2023/03/17 00:30:46;;;;;;;6.75;4.75;;;;;;;-145.63;100.00;61273.97;5023146;28;20066;-66
2023/03/17 00:33:16;;;;;;;6.78;4.68;;;;;;;-145.63;100.00;61273.97;5029719;28;20033;-65
2023/03/17 00:35:44;;;;;;;6.82;4.10;;;;;;;-145.63;100.00;61273.97;5025990;28;20026;-65
2023/03/17 00:38:15;;;;;;;6.43;4.47;;;;;;;-145.63;100.00;61273.97;5022431;28;20025;-66
2023/03/17 00:40:40;;;;;;;10.10;4.80;;;;;;;-145.63;100.00;61273.97;5027367;28;20033;-66
2023/03/17 00:43:07;;;;;;;7.07;4.95;;;;;;;-145.63;100.00;61273.97;5019716;28;20025;-65
2023/03/17 00:45:33;;;;;;;9.13;4.88;;;;;;;-145.63;100.00;61273.97;5027788;28;20026;-67
2023/03/17 00:47:59;;;;;;;7.85;4.85;;;;;;;-145.63;100.00;61273.97;5025010;28;20037;-68
2023/03/17 00:50:27;;;;;;;7.28;5.15;;;;;;;-145.63;100.00;61273.97;5023147;28;20025;-66
2023/03/17 00:52:57;;;;;;;11.73;5.70;;;;;;;-145.63;100.00;61273.97;5026566;28;20057;-66
2023/03/17 00:55:25;;;;;;;9.50;6.07;;;;;;;-145.63;100.00;61273.97;5024794;28;20191;-68
2023/03/17 00:58:02;;;;;;;9.82;5.63;;;;;;;-145.63;100.00;61273.97;5026560;28;20045;-67
2023/03/17 01:00:28;;;;;;;10.05;5.75;;;;;;;-145.63;100.00;61273.97;5022797;28;20029;-67
2023/03/17 01:03:10;;;;;;;8.70;5.40;;;;;;;-145.63;100.00;61273.97;5018463;28;20029;-67
2023/03/17 01:05:42;;;;;;;10.60;5.90;;;;;;;-145.63;100.00;61273.97;5023278;28;20053;-66
2023/03/17 01:08:10;;;;;;;8.52;5.70;;;;;;;-145.63;100.00;61273.97;5020504;28;20029;-67
2023/03/17 01:10:36;;;;;;;9.55;6.18;;;;;;;-145.63;100.00;61273.97;5025460;28;20021;-64
2023/03/17 01:13:04;;;;;;;12.02;6.43;;;;;;;-145.63;100.00;61273.97;5015976;28;20037;-66
2023/03/17 01:15:30;;;;;;;9.82;6.45;;;;;;;-145.63;100.00;61273.97;5022686;28;20040;-66
2023/03/17 01:18:01;;;;;;;9.10;5.85;;;;;;;-145.63;100.00;61273.97;5019000;28;20375;-66
2023/03/17 01:20:31;;;;;;;10.32;6.28;;;;;;;-145.63;100.00;61273.97;5024612;28;20041;-67
2023/03/17 01:23:03;;;;;;;10.43;5.38;;;;;;;-145.63;100.00;61273.97;5024077;28;20118;-65
2023/03/17 01:25:32;;;;;;;10.85;6.30;;;;;;;-145.63;100.00;61273.97;5033044;28;20088;-65
2023/03/17 01:28:06;;;;;;;9.10;5.80;;;;;;;-145.63;100.00;61273.97;5022493;28;20314;-68
2023/03/17 01:30:38;;;;;;;13.32;6.30;;;;;;;-145.63;100.00;61273.97;5020395;28;20084;-65
2023/03/17 01:33:05;;;;;;;8.95;5.95;;;;;;;-145.63;100.00;61273.97;5022734;28;20034;-65
2023/03/17 01:35:31;;;;;;;10.43;5.68;;;;;;;-145.63;100.00;61273.97;5025327;28;20097;-66
2023/03/17 01:38:21;;;;;;;7.80;5.45;;;;;;;-145.63;100.00;61273.97;5012546;28;20030;-65
2023/03/17 01:40:50;;;;;;;8.07;4.90;;;;;;;-145.63;100.00;61273.97;5019095;28;20070;-66
2023/03/17 01:43:30;;;;;;;8.23;5.10;;;;;;;-145.63;100.00;61273.97;5033756;28;20360;-65
2023/03/17 01:46:16;;;;;;;6.80;4.80;;;;;;;-145.63;100.00;61273.97;5018901;28;20222;-65
2023/03/17 01:48:57;;;;;;;7.53;4.45;;;;;;;-145.63;100.00;61273.97;5014701;28;20069;-64
2023/03/17 01:51:36;;;;;;;9.13;4.63;;;;;;;-145.63;100.00;61273.97;5028646;28;20037;-66
2023/03/17 01:54:13;;;;;;;6.07;4.07;;;;;;;-145.63;100.00;61273.97;5020746;28;20038;-66
2023/03/17 01:56:42;;;;;;;5.90;4.43;;;;;;;-145.63;100.00;61273.97;5016025;28;20352;-65
2023/03/17 01:59:18;;;;;;;5.88;3.75;;;;;;;-145.63;100.00;61273.97;5021603;28;20068;-65
2023/03/17 02:01:48;;;;;;;5.15;4.00;;;;;;;-145.63;100.00;61273.97;5021529;28;20227;-65
2023/03/17 02:04:14;;;;;;;4.82;4.15;;;;;;;-145.63;100.00;61273.97;5010760;28;20035;-65
2023/03/17 02:06:41;;;;;;;5.90;4.28;;;;;;;-145.63;100.00;61273.97;5008587;28;20259;-65
2023/03/17 02:09:08;;;;;;;6.50;4.20;;;;;;;-145.63;100.00;61273.97;5016525;28;20230;-64
2023/03/17 02:11:34;;;;;;;6.50;4.00;;;;;;;-145.63;100.00;61273.97;5024268;28;20026;-65
2023/03/17 02:14:00;;;;;;;5.68;3.90;;;;;;;-145.63;100.00;61273.97;5011715;28;20080;-64
2023/03/17 02:16:28;;;;;;;6.95;3.97;;;;;;;-145.63;100.00;61273.97;5019177;28;20025;-65
2023/03/17 02:18:57;;;;;;;5.97;3.65;;;;;;;-145.63;100.00;61273.97;5021581;28;20068;-64
2023/03/17 02:21:36;;;;;;;7.25;4.00;;;;;;;-145.63;100.00;61273.97;5024255;28;20227;-65
2023/03/17 02:24:23;;;;;;;6.70;3.92;;;;;;;-145.63;100.00;61273.97;5027532;28;20275;-65
2023/03/17 02:26:57;;;;;;;6.07;3.78;;;;;;;-145.63;100.00;61273.97;5020643;28;20045;-68
2023/03/17 02:29:26;;;;;;;6.13;3.80;;;;;;;-145.63;100.00;61273.97;5021537;28;20030;-66
2023/03/17 02:31:52;;;;;;;6.82;4.20;;;;;;;-145.63;100.00;61273.97;5026293;28;20022;-66
2023/03/17 02:34:18;;;;;;;6.60;3.97;;;;;;;-145.63;100.00;61273.97;5018159;28;20056;-66
2023/03/17 02:36:45;;;;;;;6.85;3.67;;;;;;;-145.63;100.00;61273.97;5014494;28;20026;-65
2023/03/17 02:39:13;;;;;;;5.82;4.47;;;;;;;-145.63;100.00;61273.97;5015217;28;20036;-66
2023/03/17 02:41:39;;;;;;;7.97;3.90;;;;;;;-145.63;100.00;61273.97;5022285;28;20096;-67
2023/03/17 02:44:07;;;;;;;8.02;3.67;;;;;;;-145.63;100.00;61273.97;5009410;28;20060;-66
2023/03/17 02:46:33;;;;;;;6.80;4.03;;;;;;;-145.63;100.00;61273.97;5017375;28;20194;-66
2023/03/17 02:49:00;;;;;;;7.15;3.50;;;;;;;-145.63;100.00;61273.97;5012929;28;20109;-67
2023/03/17 02:51:28;;;;;;;8.63;3.97;;;;;;;-145.63;100.00;61273.97;5013784;28;20038;-66
2023/03/17 02:53:57;;;;;;;7.63;4.10;;;;;;;-145.63;100.00;61273.97;5021706;28;20092;-64
2023/03/17 02:56:34;;;;;;;6.03;3.35;;;;;;;-145.63;100.00;61273.97;5012739;28;20049;-65
2023/03/17 02:59:00;;;;;;;5.93;3.88;;;;;;;-145.63;100.00;61273.97;5016086;28;20473;-66
2023/03/17 03:01:26;;;;;;;8.02;3.53;;;;;;;-145.63;100.00;61273.97;5009270;28;20061;-65
2023/03/17 03:03:52;;;;;;;6.30;3.40;;;;;;;-145.63;100.00;61273.97;5018253;28;20084;-66
2023/03/17 03:06:18;;;;;;;6.65;3.50;;;;;;;-145.63;100.00;61273.97;5014136;28;20029;-66
2023/03/17 03:08:43;;;;;;;5.03;3.00;;;;;;;-145.63;100.00;61273.97;5032260;28;20068;-66
2023/03/17 03:11:09;;;;;;;6.28;3.17;;;;;;;-145.63;100.00;61273.97;5016786;28;20337;-67
2023/03/17 03:13:36;;;;;;;3.72;2.70;;;;;;;-145.63;100.00;61273.97;5007914;28;20030;-68
2023/03/17 03:16:10;;;;;;;5.95;2.95;;;;;;;-145.63;100.00;61273.97;5030913;28;20037;-66
2023/03/17 03:18:36;;;;;;;3.83;2.83;;;;;;;-145.63;100.00;61273.97;5023061;28;20302;-65
2023/03/17 03:21:08;;;;;;;5.78;3.17;;;;;;;-145.63;100.00;61273.97;5020061;28;20093;-65
2023/03/17 03:23:40;;;;;;;5.18;2.92;;;;;;;-145.63;100.00;61273.97;5020006;28;20083;-67
2023/03/17 03:26:06;;;;;;;5.13;2.97;;;;;;;-145.63;100.00;61273.97;5005927;28;20411;-65
2023/03/17 03:28:32;;;;;;;3.63;2.55;;;;;;;-145.63;100.00;61273.97;5014556;28;20100;-65
2023/03/17 03:31:16;;;;;;;4.38;2.72;;;;;;;-145.63;100.00;61273.97;5027780;28;20052;-65
2023/03/17 03:33:42;;;;;;;4.68;3.00;;;;;;;-145.63;100.00;61273.97;5019082;28;20034;-66
2023/03/17 03:36:08;;;;;;;3.95;2.40;;;;;;;-145.63;100.00;61273.97;5020088;28;20049;-65
2023/03/17 03:38:34;;;;;;;4.18;2.53;;;;;;;-145.63;100.00;61273.97;5023112;28;20018;-65
2023/03/17 03:41:00;;;;;;;4.10;2.28;;;;;;;-145.63;100.00;61273.97;5019095;28;20037;-65
2023/03/17 03:43:25;;;;;;;4.28;2.17;;;;;;;-145.63;100.00;61273.97;5021967;28;20034;-64
2023/03/17 03:46:06;;;;;;;4.72;2.33;;;;;;;-145.63;100.00;61273.97;5013473;28;20307;-65
2023/03/17 03:48:32;;;;;;;3.65;2.38;;;;;;;-145.63;100.00;61273.97;5021839;28;20310;-64
2023/03/17 03:51:00;;;;;;;3.33;2.13;;;;;;;-145.63;100.00;61273.97;5020464;28;20036;-65
2023/03/17 03:53:26;;;;;;;5.20;2.50;;;;;;;-145.63;100.00;61273.97;5015870;28;20045;-66
2023/03/17 03:55:53;;;;;;;3.90;2.45;;;;;;;-145.63;100.00;61273.97;5023975;28;20187;-65
2023/03/17 03:58:18;;;;;;;5.40;2.35;;;;;;;-145.63;100.00;61273.97;5016336;28;20243;-65
2023/03/17 04:00:45;;;;;;;4.13;2.28;;;;;;;-145.63;100.00;61273.97;5020984;28;20195;-65
2023/03/17 04:03:11;;;;;;;3.83;2.30;;;;;;;-145.63;100.00;61273.97;5017720;28;20049;-64
2023/03/17 04:05:37;;;;;;;4.43;2.40;;;;;;;-145.63;100.00;61273.97;5016408;28;20034;-65
2023/03/17 04:08:02;;;;;;;4.28;2.15;;;;;;;-145.63;100.00;61273.97;5024581;28;20032;-64
2023/03/17 04:10:28;;;;;;;3.65;2.13;;;;;;;-145.63;100.00;61273.97;5032820;28;20025;-67
2023/03/17 04:13:02;;;;;;;2.97;2.08;;;;;;;-145.63;100.00;61273.97;5019429;28;20109;-65
2023/03/17 04:15:28;;;;;;;4.38;2.70;;;;;;;-145.63;100.00;61273.97;5015907;28;20026;-65
2023/03/17 04:17:56;;;;;;;3.40;2.20;;;;;;;-145.63;100.00;61273.97;5004723;28;20339;-64
2023/03/17 04:20:28;;;;;;;3.17;2.00;;;;;;;-145.63;100.00;61273.97;5023024;28;20060;-65
2023/03/17 04:22:56;;;;;;;5.90;2.20;;;;;;;-145.63;100.00;61273.97;5022533;28;20030;-65
2023/03/17 04:25:22;;;;;;;2.47;1.90;;;;;;;-145.63;100.00;61273.97;5008996;28;20302;-64
2023/03/17 04:27:50;;;;;;;2.30;1.65;;;;;;;-145.63;100.00;61273.97;5020091;28;20037;-66
2023/03/17 04:30:19;;;;;;;8.70;5.43;;;;;;;-145.63;100.00;61273.97;5042353;28;20052;-65
2023/03/17 04:32:45;;;;;;;5.25;2.13;;;;;;;-145.63;100.00;61273.97;5042185;28;20313;-65
2023/03/17 04:35:18;;;;;;;2.88;1.58;;;;;;;-145.63;100.00;61273.97;5042227;28;20030;-68
2023/03/17 04:37:44;;;;;;;5.32;2.47;;;;;;;-145.63;100.00;61273.97;5025151;28;20079;-67
2023/03/17 04:40:12;;;;;;;3.95;2.35;;;;;;;-145.63;100.00;61273.97;5019210;28;20022;-66
2023/03/17 04:42:38;;;;;;;3.70;2.03;;;;;;;-145.63;100.00;61273.97;5015339;28;20318;-65
2023/03/17 04:45:05;;;;;;;2.05;1.85;;;;;;;-145.63;100.00;61273.97;5005479;28;20061;-64
2023/03/17 04:47:31;;;;;;;1.92;1.67;;;;;;;-145.63;100.00;61273.97;5022039;28;20097;-66
2023/03/17 04:49:57;;;;;;;3.30;2.10;;;;;;;-145.63;100.00;61273.97;5006213;28;20223;-66
2023/03/17 04:52:23;;;;;;;4.47;2.10;;;;;;;-145.63;100.00;61273.97;5019648;28;20029;-66
2023/03/17 04:54:49;;;;;;;3.83;2.10;;;;;;;-145.63;100.00;61273.97;5017232;28;20125;-65
2023/03/17 04:57:14;;;;;;;3.13;1.77;;;;;;;-145.63;100.00;61273.97;5010356;28;20160;-64
2023/03/17 04:59:40;;;;;;;2.58;1.65;;;;;;;-145.63;100.00;61273.97;5025372;28;20246;-65
2023/03/17 05:02:06;;;;;;;3.88;1.67;;;;;;;-145.63;100.00;61273.97;5006926;28;20031;-66
2023/03/17 05:04:32;;;;;;;4.32;1.90;;;;;;;-145.63;100.00;61273.97;5020396;28;20037;-66
2023/03/17 05:06:58;;;;;;;8.43;2.22;;;;;;;-145.63;100.00;61273.97;5015037;28;20049;-66
2023/03/17 05:09:25;;;;;;;3.42;1.73;;;;;;;-145.63;100.00;61273.97;5011127;28;20064;-65
2023/03/17 05:11:51;;;;;;;3.55;1.67;;;;;;;-145.63;100.00;61273.97;5027676;28;20221;-66
2023/03/17 05:14:16;;;;;;;3.72;1.75;;;;;;;-145.63;100.00;61273.97;5045756;28;20029;-65
2023/03/17 05:16:45;;;;;;;2.38;1.52;;;;;;;-145.63;100.00;61273.97;5027841;28;20042;-65
2023/03/17 05:19:10;;;;;;;3.63;1.55;;;;;;;-145.63;100.00;61273.97;5025294;28;20049;-65
2023/03/17 05:21:36;;;;;;;2.65;1.63;;;;;;;-145.63;100.00;61273.97;5025254;28;20029;-66
2023/03/17 05:24:02;;;;;;;2.92;1.70;;;;;;;-145.63;100.00;61273.97;5023259;28;20120;-66
2023/03/17 05:26:28;;;;;;;2.28;1.52;;;;;;;-145.63;100.00;61273.97;5005285;28;20077;-67
2023/03/17 05:28:53;;;;;;;4.78;1.80;;;;;;;-145.63;100.00;61273.97;5022652;28;20311;-67
2023/03/17 05:31:19;;;;;;;4.47;1.70;;;;;;;-145.63;100.00;61273.97;5028505;28;20026;-65
2023/03/17 05:33:45;;;;;;;2.85;2.10;;;;;;;-145.63;100.00;61273.97;5036760;28;20203;-66
2023/03/17 05:36:12;;;;;;;4.38;1.83;;;;;;;-145.63;100.00;61273.97;5022508;28;20041;-68
2023/03/17 05:38:37;;;;;;;3.83;1.58;;;;;;;-145.63;100.00;61273.97;5004884;28;20033;-65
2023/03/17 05:41:04;;;;;;;2.42;1.60;;;;;;;-145.63;100.00;61273.97;5020371;28;20222;-66
2023/03/17 05:43:30;;;;;;;3.60;1.80;;;;;;;-145.63;100.00;61273.97;5011600;28;20093;-65
2023/03/17 05:45:55;;;;;;;3.38;1.65;;;;;;;-145.63;100.00;61273.97;5014284;28;20330;-66
2023/03/17 05:48:21;;;;;;;2.95;1.50;;;;;;;-145.63;100.00;61273.97;5020382;28;20241;-66
2023/03/17 05:50:47;;;;;;;2.92;1.75;;;;;;;-145.63;100.00;61273.97;5005707;28;20077;-67
2023/03/17 05:53:13;;;;;;;3.83;1.42;;;;;;;-145.63;100.00;61273.97;5024615;28;20037;-66
2023/03/17 05:55:39;;;;;;;4.18;2.00;;;;;;;-145.63;100.00;61273.97;5009418;28;20092;-67
2023/03/17 05:58:05;;;;;;;2.40;1.45;;;;;;;-145.63;100.00;61273.97;5015212;28;20251;-67
2023/03/17 06:00:31;;;;;;;3.20;1.48;;;;;;;-145.63;100.00;61273.97;5028814;28;20029;-65
2023/03/17 06:02:57;;;;;;;2.30;1.30;;;;;;;-145.63;100.00;61273.97;5034103;28;20029;-66
2023/03/17 06:05:22;;;;;;;4.97;1.67;;;;;;;-145.63;100.00;61273.97;5034087;28;20049;-65
2023/03/17 06:07:48;;;;;;;3.00;1.48;;;;;;;-145.63;100.00;61273.97;5032523;28;20242;-67
2023/03/17 06:10:14;;;;;;;4.25;1.45;;;;;;;-145.63;100.00;61273.97;5032291;28;20099;-66
2023/03/17 06:12:39;;;;;;;3.70;1.77;;;;;;;-145.63;100.00;61273.97;5031969;28;20128;-66
2023/03/17 06:15:07;;;;;;;3.13;1.80;;;;;;;-145.63;100.00;61273.97;5032396;28;20602;-65
2023/03/17 06:17:33;;;;;;;3.15;1.40;;;;;;;-145.63;100.00;61273.97;5033294;28;20037;-66
2023/03/17 06:19:58;;;;;;;2.35;1.48;;;;;;;-145.63;100.00;61273.97;5034976;28;20256;-65
2023/03/17 06:22:24;;;;;;;4.70;1.45;;;;;;;-145.63;100.00;61273.97;5033773;28;20037;-65
2023/03/17 06:24:52;;;;;;;7.13;1.70;;;;;;;-145.63;100.00;61273.97;5032427;28;20025;-66
2023/03/17 06:27:17;;;;;;;6.85;2.00;;;;;;;-145.63;100.00;61273.97;5032792;28;20029;-65
2023/03/17 06:29:43;;;;;;;9.65;2.15;;;;;;;-145.63;100.00;61273.97;5031807;28;20048;-65
2023/03/17 06:32:10;;;;;;;3.40;1.60;;;;;;;-145.63;100.00;61273.97;5032887;28;20088;-66
2023/03/17 06:34:35;;;;;;;4.57;1.67;;;;;;;-145.63;100.00;61273.97;5032724;28;20072;-66
2023/03/17 06:37:01;;;;;;;6.10;1.50;;;;;;;-145.63;100.00;61273.97;5028407;28;20089;-65
2023/03/17 06:39:26;;;;;;;5.97;1.90;;;;;;;-145.63;100.00;61273.97;5020269;28;20045;-65
2023/03/17 06:41:52;;;;;;;6.25;2.45;;;;;;;-145.63;100.00;61273.97;5033670;28;20021;-65
2023/03/17 06:44:18;;;;;;;2.88;1.73;;;;;;;-145.63;100.00;61273.97;5029527;28;20048;-66
2023/03/17 06:46:43;;;;;;;5.70;1.85;;;;;;;-145.63;100.00;61273.97;5031369;28;20021;-64
2023/03/17 06:49:12;;;;;;;2.47;1.50;;;;;;;-145.63;100.00;61273.97;5031727;28;20025;-65
2023/03/17 06:51:38;;;;;;;4.18;1.60;;;;;;;-145.63;100.00;61273.97;5029612;28;20123;-66
2023/03/17 06:54:05;;;;;;;9.25;2.30;;;;;;;-145.63;100.00;61273.97;5031219;28;20028;-65
2023/03/17 06:56:31;;;;;;;5.03;2.00;;;;;;;-145.63;100.00;61273.97;5033242;28;20179;-66
2023/03/17 06:58:57;;;;;;;2.92;1.85;;;;;;;-145.63;100.00;61273.97;5022921;28;20350;-64
2023/03/17 07:01:23;;;;;;;3.15;1.83;;;;;;;-145.63;100.00;61273.97;5032232;28;20035;-65
2023/03/17 07:03:49;;;;;;;4.00;1.88;;;;;;;-145.63;100.00;61273.97;5035139;28;20342;-65
2023/03/17 07:06:15;;;;;;;4.70;1.80;;;;;;;-145.63;100.00;61273.97;5020035;28;20034;-65
2023/03/17 07:08:40;;;;;;;4.35;1.77;;;;;;;-145.63;100.00;61273.97;5003870;28;20026;-65
2023/03/17 07:11:06;;;;;;;4.10;1.63;;;;;;;-145.63;100.00;61273.97;5020746;28;20030;-66
2023/03/17 07:13:37;;;;;;;3.95;1.77;;;;;;;-145.63;100.00;61273.97;5010039;28;20148;-66
2023/03/17 07:16:03;;;;;;;2.73;1.73;;;;;;;-145.63;100.00;61273.97;5013077;28;20049;-65
2023/03/17 07:18:33;;;;;;;4.22;1.88;;;;;;;-145.63;100.00;61273.97;5023092;28;20033;-65
2023/03/17 07:21:02;;;;;;;3.25;1.90;;;;;;;-145.63;100.00;61273.97;5023593;28;20029;-65
2023/03/17 07:23:28;;;;;;;5.22;2.10;;;;;;;-145.63;100.00;61273.97;5043066;28;20049;-66
2023/03/17 07:25:54;;;;;;;2.90;2.00;;;;;;;-145.63;100.00;61273.97;5042816;28;20037;-67
2023/03/17 07:28:20;;;;;;;3.13;1.70;;;;;;;-145.63;100.00;61273.97;5042873;28;20029;-66
2023/03/17 07:30:49;;;;;;;4.40;2.00;;;;;;;-145.63;100.00;61273.97;5042647;28;20076;-65
2023/03/17 07:33:16;;;;;;;4.22;1.67;;;;;;;-145.63;100.00;61273.97;5042863;28;20041;-66
2023/03/17 07:35:43;;;;;;;4.45;1.80;;;;;;;-145.63;100.00;61273.97;5042959;28;20045;-66
2023/03/17 07:38:09;;;;;;;4.40;1.67;;;;;;;-145.63;100.00;61273.97;5025225;28;20089;-65
2023/03/17 07:40:35;;;;;;;4.32;2.10;;;;;;;-145.63;100.00;61273.97;5020920;28;20034;-66
2023/03/17 07:43:01;;;;;;;2.15;1.30;;;;;;;-145.63;100.00;61273.97;5013959;28;20366;-66
2023/03/17 07:45:27;;;;;;;2.35;1.50;;;;;;;-145.63;100.00;61273.97;5007603;28;20076;-66
2023/03/17 07:47:53;;;;;;;4.30;1.40;;;;;;;-145.63;100.00;61273.97;5023170;28;20092;-66
2023/03/17 07:50:19;;;;;;;1.90;1.60;;;;;;;-145.63;100.00;61273.97;5002664;28;20029;-67
2023/03/17 07:52:45;;;;;;;3.50;1.90;;;;;;;-145.63;100.00;61273.97;5017772;28;20306;-65
2023/03/17 07:55:11;;;;;;;2.65;1.67;;;;;;;-145.63;100.00;61273.97;5012591;28;20113;-65
2023/03/17 07:57:39;;;;;;;2.55;1.70;;;;;;;-145.63;100.00;61273.97;5008606;28;20076;-67
2023/03/17 08:00:09;;;;;;;3.53;1.50;;;;;;;-145.63;100.00;61273.97;5022501;28;20037;-66
2023/03/17 08:02:35;;;;;;;2.88;1.33;;;;;;;-145.63;100.00;61273.97;5041998;28;20310;-65
2023/03/17 08:05:02;;;;;;;3.47;1.70;;;;;;;-145.63;100.00;61273.97;5025589;28;20353;-66
2023/03/17 08:07:30;;;;;;;3.17;1.50;;;;;;;-145.63;100.00;61273.97;5010466;28;20036;-64
2023/03/17 08:09:56;;;;;;;3.45;1.75;;;;;;;-145.63;100.00;61273.97;5010667;28;20080;-67
2023/03/17 08:12:22;;;;;;;3.08;1.42;;;;;;;-145.63;100.00;61273.97;5022473;28;20049;-67
2023/03/17 08:14:49;;;;;;;2.38;1.60;;;;;;;-145.63;100.00;61273.97;5004044;28;20037;-66
2023/03/17 08:17:15;;;;;;;2.78;1.58;;;;;;;-145.63;100.00;61273.97;5031797;28;20100;-67
2023/03/17 08:19:41;;;;;;;4.10;1.52;;;;;;;-145.63;100.00;61273.97;5031314;28;20239;-67
2023/03/17 08:22:07;;;;;;;3.90;1.30;;;;;;;-145.63;100.00;61273.97;5033108;28;20044;-65
2023/03/17 08:24:33;;;;;;;2.22;1.40;;;;;;;-145.63;100.00;61273.97;5036175;28;20063;-66
2023/03/17 08:26:58;;;;;;;3.08;1.58;;;;;;;-145.63;100.00;61273.97;5036213;28;20030;-66
2023/03/17 08:29:24;;;;;;;2.03;1.20;;;;;;;-145.63;100.00;61273.97;5035970;28;20084;-66
2023/03/17 08:31:50;;;;;;;2.03;1.30;;;;;;;-145.63;100.00;61273.97;5032349;28;20042;-66
2023/03/17 08:34:16;;;;;;;2.92;1.48;;;;;;;-145.63;100.00;61273.97;5037699;28;20075;-66
2023/03/17 08:36:41;;;;;;;3.05;1.55;;;;;;;-145.63;100.00;61273.97;5037156;28;20048;-66
2023/03/17 08:39:09;;;;;;;3.78;1.30;;;;;;;-145.63;100.00;61273.97;5036408;28;20025;-67
2023/03/17 08:41:36;;;;;;;2.60;1.33;;;;;;;-145.63;100.00;61273.97;5034185;28;20026;-66
2023/03/17 08:44:02;;;;;;;2.67;1.60;;;;;;;-145.63;100.00;61273.97;5035584;28;20182;-66
2023/03/17 08:46:32;;;;;;;2.20;1.45;;;;;;;-145.63;100.00;61273.97;5033346;28;20259;-66
2023/03/17 08:48:58;;;;;;;2.35;1.30;;;;;;;-145.63;100.00;61273.97;5033840;28;20026;-67
2023/03/17 08:51:28;;;;;;;2.35;1.10;;;;;;;-145.63;100.00;61273.97;5036798;28;20026;-68
2023/03/17 08:53:54;;;;;;;1.70;1.20;;;;;;;-145.63;100.00;61273.97;5035161;28;20028;-67
2023/03/17 08:56:20;;;;;;;3.20;1.52;;;;;;;-145.63;100.00;61273.97;5032436;28;20222;-67
2023/03/17 08:58:47;;;;;;;2.95;1.20;;;;;;;-145.63;100.00;61273.97;5026019;28;20348;-67
2023/03/17 09:01:14;;;;;;;1.75;1.20;;;;;;;-145.63;100.00;61273.97;5014442;28;20030;-68
2023/03/17 09:03:40;;;;;;;2.45;1.40;;;;;;;-145.63;100.00;61273.97;5021081;28;20026;-67
2023/03/17 09:06:10;;;;;;;2.42;1.42;;;;;;;-145.63;100.00;61273.97;5025442;28;20018;-67
2023/03/17 09:08:38;;;;;;;2.83;1.80;;;;;;;-145.63;100.00;61273.97;5006170;28;20034;-67
2023/03/17 09:11:05;;;;;;;2.63;1.30;;;;;;;-145.63;100.00;61273.97;5022336;28;20168;-68
2023/03/17 09:13:33;;;;;;;3.75;1.30;;;;;;;-145.63;100.00;61273.97;5037514;28;20017;-67
2023/03/17 09:16:00;;;;;;;1.88;1.30;;;;;;;-145.63;100.00;61273.97;5029306;28;20033;-68
2023/03/17 09:18:26;;;;;;;3.10;1.27;;;;;;;-145.63;100.00;61273.97;5025344;28;20057;-68
2023/03/17 09:20:52;;;;;;;1.10;1.00;;;;;;;-145.63;100.00;61273.97;5009219;28;20042;-67
2023/03/17 09:23:17;;;;;;;2.28;0.95;;;;;;;-145.63;100.00;61273.97;5024353;28;20030;-67
2023/03/17 09:25:43;;;;;;;2.20;0.98;;;;;;;-145.63;100.00;61273.97;5011744;28;20040;-68
2023/03/17 09:28:11;;;;;;;2.50;1.30;;;;;;;-145.63;100.00;61273.97;5014469;28;20041;-67
2023/03/17 09:30:41;;;;;;;3.17;1.08;;;;;;;-145.63;100.00;61273.97;5023988;28;20030;-67
2023/03/17 09:33:09;;;;;;;1.70;1.00;;;;;;;-145.63;100.00;61273.97;5038042;28;20215;-69
2023/03/17 09:35:34;;;;;;;1.30;0.90;;;;;;;-145.63;100.00;61273.97;5005124;28;20042;-67
2023/03/17 09:38:00;;;;;;;3.05;1.02;;;;;;;-145.63;100.00;61273.97;5011212;28;20072;-68
2023/03/17 09:40:32;;;;;;;3.05;1.33;;;;;;;-145.63;100.00;61273.97;5019735;28;20026;-67
2023/03/17 09:43:28;;;;;;;1.20;1.00;;;;;;;-145.63;100.00;61273.97;5017955;28;20040;-66
2023/03/17 09:45:54;;;;;;;2.13;1.15;;;;;;;-145.63;100.00;61273.97;5011720;28;20108;-67
2023/03/17 09:48:47;;;;;;;2.33;1.10;;;;;;;-145.63;100.00;61273.97;5023627;28;20113;-66
2023/03/17 09:51:17;;;;;;;4.20;1.20;;;;;;;-145.63;100.00;61273.97;5020255;28;20034;-66
2023/03/17 09:54:01;;;;;;;1.25;1.00;;;;;;;-145.63;100.00;61273.97;5024882;28;20045;-66
2023/03/17 09:56:35;;;;;;;3.40;2.08;;;;;;;-145.63;100.00;61273.97;5005653;28;20401;-67
2023/03/17 09:59:07;;;;;;;1.70;1.17;;;;;;;-145.63;100.00;61273.97;5020814;28;20061;-67
2023/03/17 10:01:33;;;;;;;2.83;1.25;;;;;;;-145.63;100.00;61273.97;5015295;28;20026;-68
2023/03/17 10:04:01;;;;;;;2.15;1.17;;;;;;;-145.63;100.00;61273.97;5017154;28;20045;-66
2023/03/17 10:06:51;;;;;;;2.10;1.27;;;;;;;-145.63;100.00;61273.97;5007904;28;20052;-67
2023/03/17 10:09:31;;;;;;;1.85;1.25;;;;;;;-145.63;100.00;61273.97;5005294;28;20183;-66
2023/03/17 10:12:26;;;;;;;4.68;1.00;;;;;;;-145.63;100.00;61273.97;5005228;28;20054;-65
2023/03/17 10:15:10;;;;;;;1.25;0.90;;;;;;;-145.63;100.00;61273.97;5009476;28;20044;-65
2023/03/17 10:17:40;;;;;;;1.58;1.05;;;;;;;-145.63;100.00;61273.97;5005034;28;20026;-66
2023/03/17 10:20:16;;;;;;;2.53;1.00;;;;;;;-145.63;100.00;61273.97;5021892;28;20076;-66
2023/03/17 10:22:56;;;;;;;1.52;1.00;;;;;;;-145.63;100.00;61273.97;5024226;28;20091;-66
2023/03/17 10:25:30;;;;;;;1.13;0.90;;;;;;;-145.63;100.00;61273.97;5015163;28;20033;-66
2023/03/17 10:28:31;;;;;;;1.85;1.17;;;;;;;-145.63;100.00;61273.97;5016873;28;20101;-65
2023/03/17 10:31:12;;;;;;;1.10;0.80;;;;;;;-145.63;100.00;61273.97;5017929;28;20047;-67
2023/03/17 10:33:38;;;;;;;3.85;1.23;;;;;;;-145.63;100.00;61273.97;5039593;28;20036;-65
2023/03/17 10:36:13;;;;;;;2.17;1.08;;;;;;;-145.63;100.00;61273.97;5024196;28;20065;-66
2023/03/17 10:38:39;;;;;;;1.92;0.88;;;;;;;-145.63;100.00;61273.97;5004048;28;20026;-66
2023/03/17 10:41:08;;;;;;;1.15;0.93;;;;;;;-145.63;100.00;61273.97;5020003;28;20072;-65
2023/03/17 10:43:41;;;;;;;2.10;1.10;;;;;;;-145.63;100.00;61273.97;5012680;28;20030;-65
2023/03/17 10:46:20;;;;;;;3.40;1.10;;;;;;;-145.63;100.00;61273.97;5010127;28;20352;-65
2023/03/17 10:48:52;;;;;;;1.70;1.10;;;;;;;-145.63;100.00;61273.97;5019096;28;20105;-66
2023/03/17 10:51:30;;;;;;;2.90;1.10;;;;;;;-145.63;100.00;61273.97;5005600;28;20057;-65
2023/03/17 10:54:00;;;;;;;3.83;1.30;;;;;;;-145.63;100.00;61273.97;5023873;28;20037;-66
2023/03/17 10:56:28;;;;;;;2.60;1.20;;;;;;;-145.63;100.00;61273.97;5005336;28;20069;-66
2023/03/17 10:58:56;;;;;;;3.33;1.35;;;;;;;-145.63;100.00;61273.97;5022436;28;20036;-67
2023/03/17 11:01:37;;;;;;;1.63;1.13;;;;;;;-145.63;100.00;61273.97;5012237;28;20350;-68
2023/03/17 11:04:38;;;;;;;1.55;1.10;;;;;;;-145.63;100.00;61273.97;5016146;28;20068;-66
2023/03/17 11:07:19;;;;;;;2.70;1.35;;;;;;;-145.63;100.00;61273.97;5010840;28;20265;-65
2023/03/17 11:09:55;;;;;;;1.40;1.03;;;;;;;-145.63;100.00;61273.97;5018634;28;20022;-66
2023/03/17 11:12:28;;;;;;;2.80;1.10;;;;;;;-145.63;100.00;61273.97;5004180;28;20416;-67
2023/03/17 11:14:59;;;;;;;1.73;1.30;;;;;;;-145.63;100.00;61273.97;5021970;28;20322;-66
2023/03/17 11:17:55;;;;;;;4.85;1.67;;;;;;;-145.63;100.00;61273.97;5005051;28;20037;-67